Nickelena — WDER746 — position and weather

sailwx.info

Track history (hours):
 
Tides and Currents Weather Stations Pressure Air Temp Water Temp Dewpoint Dewpoint Depression Visibility Wind Speed Wind Dir Waves Ship Positions

Nickelena

Last reported at 2015-May-26 16:29 UTC. Time now 2015-Jul-05 04:22 UTC.
Position N 45°58' W 085°52'.
Warning: this ship's position is 39 days out of date.

Length 33 m.

Type: Tug. MMSI: 367393840.

Date/timePositionNaut miles runAvg speedWind from/ knotsBaromVisibWave heightAir tempDewpointWater temp
2015-May-26 16:29N 45°58' W 085°52'0 0.0
2015-May-26 15:33N 45°58' W 085°52'0 0.0
2015-May-26 13:32N 45°58' W 085°52'0 0.0
2015-May-26 12:32N 45°58' W 085°52'0 0.0
2015-May-26 10:10N 45°58' W 085°52'0 0.0
2015-May-26 08:21N 45°58' W 085°52'0 0.0
2015-May-26 06:18N 45°58' W 085°52'0 0.0
2015-May-26 03:34N 45°58' W 085°52'0 0.0
2015-May-26 02:34N 45°58' W 085°52'0 0.0
2015-May-26 01:22N 45°58' W 085°52'0 0.4
2015-May-26 00:34N 45°58' W 085°52'14 0.3
2015-May-24 05:33N 45°48' W 086°07'1111.3
2015-May-24 04:33N 45°54' W 085°54'4 3.9
2015-May-24 03:33N 45°58' W 085°52'0 0.1
2015-May-24 02:33N 45°58' W 085°52'0 0.0
2015-May-24 01:33N 45°58' W 085°52'0 0.0
2015-May-24 00:33N 45°58' W 085°52'0 0.0
2015-May-23 23:33N 45°58' W 085°52'0 0.0
2015-May-23 22:33N 45°58' W 085°52'0 0.0
2015-May-23 21:33N 45°58' W 085°52'0 0.0
2015-May-23 20:33N 45°58' W 085°52'0 0.0
2015-May-23 19:33N 45°58' W 085°52'0 0.0
2015-May-23 18:33N 45°58' W 085°52'0 0.0
2015-May-23 17:33N 45°58' W 085°52'0 0.0
2015-May-23 16:33N 45°58' W 085°52'0 0.0
2015-May-23 15:33N 45°58' W 085°52'0 0.0
2015-May-23 14:33N 45°58' W 085°52'0 0.0
2015-May-23 13:33N 45°58' W 085°52'0 0.0
2015-May-23 12:33N 45°58' W 085°52'0 0.0
2015-May-23 11:31N 45°58' W 085°52'0 0.1
2015-May-23 10:33N 45°58' W 085°52'1 0.9
2015-May-23 09:33N 45°57' W 085°53'0 0.2
2015-May-23 08:32N 45°57' W 085°53'6 6.4
2015-May-23 07:33N 45°52' W 085°58'1111.3
2015-May-23 06:33N 45°45' W 086°11'1211.3
2015-May-23 05:31N 45°38' W 086°25'  
Track history (hours):
 
Tides and Currents Weather Stations Pressure Air Temp Water Temp Dewpoint Dewpoint Depression Visibility Wind Speed Wind Dir Waves Ship Positions

Nickelena

Last reported at 2015-May-26 16:29 UTC. Time now 2015-Jul-05 04:22 UTC.
Position N 45°58' W 085°52'.
Warning: this ship's position is 39 days out of date.

Length 33 m.

Type: Tug. MMSI: 367393840.

Date/timePositionNaut miles runAvg speedWind from/ knotsBaromVisibWave heightAir tempDewpointWater temp
2015-May-26 16:29N 45°58' W 085°52'0 0.0
2015-May-26 15:33N 45°58' W 085°52'0 0.0
2015-May-26 13:32N 45°58' W 085°52'0 0.0
2015-May-26 12:32N 45°58' W 085°52'0 0.0
2015-May-26 10:10N 45°58' W 085°52'0 0.0
2015-May-26 08:21N 45°58' W 085°52'0 0.0
2015-May-26 06:18N 45°58' W 085°52'0 0.0
2015-May-26 03:34N 45°58' W 085°52'0 0.0
2015-May-26 02:34N 45°58' W 085°52'0 0.0
2015-May-26 01:22N 45°58' W 085°52'0 0.4
2015-May-26 00:34N 45°58' W 085°52'14 0.3
2015-May-24 05:33N 45°48' W 086°07'1111.3
2015-May-24 04:33N 45°54' W 085°54'4 3.9
2015-May-24 03:33N 45°58' W 085°52'0 0.1
2015-May-24 02:33N 45°58' W 085°52'0 0.0
2015-May-24 01:33N 45°58' W 085°52'0 0.0
2015-May-24 00:33N 45°58' W 085°52'0 0.0
2015-May-23 23:33N 45°58' W 085°52'0 0.0
2015-May-23 22:33N 45°58' W 085°52'0 0.0
2015-May-23 21:33N 45°58' W 085°52'0 0.0
2015-May-23 20:33N 45°58' W 085°52'0 0.0
2015-May-23 19:33N 45°58' W 085°52'0 0.0
2015-May-23 18:33N 45°58' W 085°52'0 0.0
2015-May-23 17:33N 45°58' W 085°52'0 0.0
2015-May-23 16:33N 45°58' W 085°52'0 0.0
2015-May-23 15:33N 45°58' W 085°52'0 0.0
2015-May-23 14:33N 45°58' W 085°52'0 0.0
2015-May-23 13:33N 45°58' W 085°52'0 0.0
2015-May-23 12:33N 45°58' W 085°52'0 0.0
2015-May-23 11:31N 45°58' W 085°52'0 0.1
2015-May-23 10:33N 45°58' W 085°52'1 0.9
2015-May-23 09:33N 45°57' W 085°53'0 0.2
2015-May-23 08:32N 45°57' W 085°53'6 6.4
2015-May-23 07:33N 45°52' W 085°58'1111.3
2015-May-23 06:33N 45°45' W 086°11'1211.3
2015-May-23 05:31N 45°38' W 086°25'  

Dump ship's entire track history